Terminal Aerodrome Forecast
Issued by NWS

Home | Current Version | Previous Version | Text Only | Print | Product List | Glossary On
Versions: 1 2 3 4 5 6 7 8 9 10 11 12
275
FTUS45 KREV 161720
TAFMMH
TAF
KMMH 161720Z 1618/1718 12006KT P6SM SKC
     FM162200 VRB05KT P6SM VCSH SCT070 BKN100
     FM170000 30007KT P6SM BKN120=

USA.gov is the U.S. government's official web portal to all federal, state and local government web resources and services.